sensor_id;sensor_type;location;lat;lon;timestamp;P1;durP1;ratioP1;P2;durP2;ratioP2
27491;SDS011;14927;51.210;6.838;2022-09-14T00:01:15;3.88;;;0.80;;
27491;SDS011;14927;51.210;6.838;2022-09-14T00:04:04;4.53;;;1.10;;
27491;SDS011;14927;51.210;6.838;2022-09-14T00:06:53;2.75;;;1.10;;
27491;SDS011;14927;51.210;6.838;2022-09-14T00:09:37;2.13;;;0.88;;
27491;SDS011;14927;51.210;6.838;2022-09-14T00:12:22;3.63;;;1.05;;
27491;SDS011;14927;51.210;6.838;2022-09-14T00:15:07;2.38;;;0.80;;
27491;SDS011;14927;51.210;6.838;2022-09-14T00:17:52;2.58;;;0.85;;
27491;SDS011;14927;51.210;6.838;2022-09-14T00:20:37;2.20;;;0.95;;
27491;SDS011;14927;51.210;6.838;2022-09-14T00:23:22;3.70;;;1.02;;
27491;SDS011;14927;51.210;6.838;2022-09-14T00:26:13;5.40;;;1.45;;
27491;SDS011;14927;51.210;6.838;2022-09-14T00:29:00;5.45;;;0.95;;
27491;SDS011;14927;51.210;6.838;2022-09-14T00:31:47;4.32;;;1.00;;
27491;SDS011;14927;51.210;6.838;2022-09-14T00:34:31;1.90;;;0.90;;
27491;SDS011;14927;51.210;6.838;2022-09-14T00:37:17;3.13;;;1.00;;
27491;SDS011;14927;51.210;6.838;2022-09-14T00:40:02;8.57;;;0.70;;
27491;SDS011;14927;51.210;6.838;2022-09-14T00:42:48;4.05;;;1.33;;
27491;SDS011;14927;51.210;6.838;2022-09-14T00:45:33;5.63;;;1.23;;
27491;SDS011;14927;51.210;6.838;2022-09-14T00:48:18;3.13;;;0.90;;
27491;SDS011;14927;51.210;6.838;2022-09-14T00:51:06;2.28;;;0.82;;
27491;SDS011;14927;51.210;6.838;2022-09-14T00:53:50;2.83;;;1.00;;
27491;SDS011;14927;51.210;6.838;2022-09-14T00:56:35;4.20;;;0.98;;
27491;SDS011;14927;51.210;6.838;2022-09-14T00:59:24;4.43;;;1.00;;
27491;SDS011;14927;51.210;6.838;2022-09-14T01:02:13;5.50;;;1.15;;
27491;SDS011;14927;51.210;6.838;2022-09-14T01:04:59;1.92;;;0.95;;
27491;SDS011;14927;51.210;6.838;2022-09-14T01:11:10;5.97;;;1.30;;
27491;SDS011;14927;51.210;6.838;2022-09-14T01:14:43;5.28;;;0.98;;
27491;SDS011;14927;51.210;6.838;2022-09-14T01:21:13;3.30;;;1.00;;
27491;SDS011;14927;51.210;6.838;2022-09-14T01:24:20;2.50;;;0.80;;
27491;SDS011;14927;51.210;6.838;2022-09-14T01:27:21;3.53;;;1.27;;
27491;SDS011;14927;51.210;6.838;2022-09-14T01:30:23;6.18;;;1.20;;
27491;SDS011;14927;51.210;6.838;2022-09-14T01:33:16;5.50;;;1.20;;
27491;SDS011;14927;51.210;6.838;2022-09-14T01:36:10;3.53;;;1.35;;
27491;SDS011;14927;51.210;6.838;2022-09-14T01:38:58;2.42;;;0.70;;
27491;SDS011;14927;51.210;6.838;2022-09-14T01:41:43;7.85;;;1.02;;
27491;SDS011;14927;51.210;6.838;2022-09-14T01:44:34;4.95;;;1.35;;
27491;SDS011;14927;51.210;6.838;2022-09-14T01:47:40;4.00;;;0.90;;
27491;SDS011;14927;51.210;6.838;2022-09-14T01:53:46;5.22;;;1.08;;
27491;SDS011;14927;51.210;6.838;2022-09-14T01:56:48;7.13;;;1.60;;
27491;SDS011;14927;51.210;6.838;2022-09-14T01:59:45;2.47;;;1.10;;
27491;SDS011;14927;51.210;6.838;2022-09-14T02:02:33;3.92;;;0.90;;
27491;SDS011;14927;51.210;6.838;2022-09-14T02:05:38;4.22;;;1.33;;
27491;SDS011;14927;51.210;6.838;2022-09-14T02:08:55;2.28;;;0.93;;
27491;SDS011;14927;51.210;6.838;2022-09-14T02:11:40;2.42;;;1.20;;
27491;SDS011;14927;51.210;6.838;2022-09-14T02:14:24;4.03;;;1.60;;
27491;SDS011;14927;51.210;6.838;2022-09-14T02:17:10;5.15;;;1.45;;
27491;SDS011;14927;51.210;6.838;2022-09-14T02:19:56;3.30;;;1.08;;
27491;SDS011;14927;51.210;6.838;2022-09-14T02:22:47;6.85;;;1.13;;
27491;SDS011;14927;51.210;6.838;2022-09-14T02:25:34;6.65;;;1.48;;
27491;SDS011;14927;51.210;6.838;2022-09-14T02:28:20;6.45;;;1.17;;
27491;SDS011;14927;51.210;6.838;2022-09-14T02:37:18;5.72;;;1.33;;
27491;SDS011;14927;51.210;6.838;2022-09-14T02:43:27;3.42;;;1.00;;
27491;SDS011;14927;51.210;6.838;2022-09-14T02:46:52;2.35;;;1.00;;
27491;SDS011;14927;51.210;6.838;2022-09-14T02:55:58;3.38;;;1.20;;
27491;SDS011;14927;51.210;6.838;2022-09-14T02:58:46;4.03;;;1.50;;
27491;SDS011;14927;51.210;6.838;2022-09-14T03:01:31;4.00;;;1.10;;
27491;SDS011;14927;51.210;6.838;2022-09-14T03:04:16;5.60;;;1.10;;
27491;SDS011;14927;51.210;6.838;2022-09-14T03:07:00;11.40;;;1.90;;
27491;SDS011;14927;51.210;6.838;2022-09-14T03:09:45;5.72;;;1.33;;
27491;SDS011;14927;51.210;6.838;2022-09-14T03:12:30;5.25;;;1.60;;
27491;SDS011;14927;51.210;6.838;2022-09-14T03:15:15;8.60;;;1.55;;
27491;SDS011;14927;51.210;6.838;2022-09-14T03:17:59;3.92;;;1.48;;
27491;SDS011;14927;51.210;6.838;2022-09-14T03:20:44;4.93;;;1.90;;
27491;SDS011;14927;51.210;6.838;2022-09-14T03:23:29;4.82;;;1.38;;
27491;SDS011;14927;51.210;6.838;2022-09-14T03:26:15;2.58;;;1.40;;
27491;SDS011;14927;51.210;6.838;2022-09-14T03:29:03;7.25;;;1.50;;
27491;SDS011;14927;51.210;6.838;2022-09-14T03:31:48;4.05;;;1.50;;
27491;SDS011;14927;51.210;6.838;2022-09-14T03:34:33;5.90;;;1.40;;
27491;SDS011;14927;51.210;6.838;2022-09-14T03:37:18;5.00;;;1.55;;
27491;SDS011;14927;51.210;6.838;2022-09-14T03:40:03;5.32;;;1.65;;
27491;SDS011;14927;51.210;6.838;2022-09-14T03:42:49;9.02;;;1.83;;
27491;SDS011;14927;51.210;6.838;2022-09-14T03:45:35;5.25;;;1.73;;
27491;SDS011;14927;51.210;6.838;2022-09-14T03:48:20;3.80;;;1.67;;
27491;SDS011;14927;51.210;6.838;2022-09-14T03:51:06;4.07;;;1.58;;
27491;SDS011;14927;51.210;6.838;2022-09-14T03:53:51;4.00;;;1.38;;
27491;SDS011;14927;51.210;6.838;2022-09-14T03:56:36;6.57;;;2.15;;
27491;SDS011;14927;51.210;6.838;2022-09-14T03:59:21;5.28;;;1.90;;
27491;SDS011;14927;51.210;6.838;2022-09-14T04:02:06;5.00;;;2.28;;
27491;SDS011;14927;51.210;6.838;2022-09-14T04:04:50;3.22;;;1.65;;
27491;SDS011;14927;51.210;6.838;2022-09-14T04:07:45;4.70;;;2.03;;
27491;SDS011;14927;51.210;6.838;2022-09-14T04:10:30;5.55;;;2.20;;
27491;SDS011;14927;51.210;6.838;2022-09-14T04:13:15;4.30;;;1.80;;
27491;SDS011;14927;51.210;6.838;2022-09-14T04:16:00;4.22;;;2.20;;
27491;SDS011;14927;51.210;6.838;2022-09-14T04:18:45;3.75;;;1.95;;
27491;SDS011;14927;51.210;6.838;2022-09-14T04:21:30;7.55;;;2.00;;
27491;SDS011;14927;51.210;6.838;2022-09-14T04:24:16;5.13;;;2.25;;
27491;SDS011;14927;51.210;6.838;2022-09-14T04:27:00;5.20;;;1.95;;
27491;SDS011;14927;51.210;6.838;2022-09-14T04:29:48;5.40;;;2.25;;
27491;SDS011;14927;51.210;6.838;2022-09-14T04:32:33;6.22;;;2.50;;
27491;SDS011;14927;51.210;6.838;2022-09-14T04:35:17;3.85;;;2.03;;
27491;SDS011;14927;51.210;6.838;2022-09-14T04:38:03;4.32;;;2.15;;
27491;SDS011;14927;51.210;6.838;2022-09-14T04:40:47;3.47;;;1.98;;
27491;SDS011;14927;51.210;6.838;2022-09-14T04:43:32;3.17;;;1.85;;
27491;SDS011;14927;51.210;6.838;2022-09-14T04:46:18;5.53;;;2.72;;
27491;SDS011;14927;51.210;6.838;2022-09-14T04:49:06;4.70;;;2.65;;
27491;SDS011;14927;51.210;6.838;2022-09-14T04:51:52;3.60;;;2.47;;
27491;SDS011;14927;51.210;6.838;2022-09-14T04:54:37;3.67;;;2.78;;
27491;SDS011;14927;51.210;6.838;2022-09-14T04:57:22;5.25;;;2.15;;
27491;SDS011;14927;51.210;6.838;2022-09-14T05:00:07;8.23;;;2.83;;
27491;SDS011;14927;51.210;6.838;2022-09-14T05:02:52;7.38;;;2.83;;
27491;SDS011;14927;51.210;6.838;2022-09-14T05:05:37;4.68;;;2.58;;
27491;SDS011;14927;51.210;6.838;2022-09-14T05:08:22;5.40;;;2.65;;
27491;SDS011;14927;51.210;6.838;2022-09-14T05:11:13;4.57;;;2.67;;
27491;SDS011;14927;51.210;6.838;2022-09-14T05:14:04;8.15;;;2.80;;
27491;SDS011;14927;51.210;6.838;2022-09-14T05:16:50;7.25;;;3.03;;
27491;SDS011;14927;51.210;6.838;2022-09-14T05:19:35;6.43;;;2.80;;
27491;SDS011;14927;51.210;6.838;2022-09-14T05:22:19;7.80;;;3.40;;
27491;SDS011;14927;51.210;6.838;2022-09-14T05:25:05;6.55;;;2.58;;
27491;SDS011;14927;51.210;6.838;2022-09-14T05:27:50;9.00;;;2.42;;
27491;SDS011;14927;51.210;6.838;2022-09-14T05:30:38;6.03;;;2.58;;
27491;SDS011;14927;51.210;6.838;2022-09-14T05:33:23;5.13;;;2.20;;
27491;SDS011;14927;51.210;6.838;2022-09-14T05:36:11;4.25;;;2.10;;
27491;SDS011;14927;51.210;6.838;2022-09-14T05:38:56;6.45;;;2.15;;
27491;SDS011;14927;51.210;6.838;2022-09-14T05:41:42;6.35;;;2.13;;
27491;SDS011;14927;51.210;6.838;2022-09-14T05:44:26;5.28;;;2.20;;
27491;SDS011;14927;51.210;6.838;2022-09-14T05:47:12;8.50;;;2.00;;
27491;SDS011;14927;51.210;6.838;2022-09-14T05:49:57;5.30;;;1.60;;
27491;SDS011;14927;51.210;6.838;2022-09-14T05:52:42;7.15;;;2.20;;
27491;SDS011;14927;51.210;6.838;2022-09-14T05:55:29;6.68;;;2.30;;
27491;SDS011;14927;51.210;6.838;2022-09-14T05:58:17;8.80;;;2.15;;
27491;SDS011;14927;51.210;6.838;2022-09-14T06:01:09;6.03;;;1.92;;
27491;SDS011;14927;51.210;6.838;2022-09-14T06:03:57;6.13;;;2.40;;
27491;SDS011;14927;51.210;6.838;2022-09-14T06:06:44;8.02;;;2.20;;
27491;SDS011;14927;51.210;6.838;2022-09-14T06:09:29;7.28;;;2.08;;
27491;SDS011;14927;51.210;6.838;2022-09-14T06:12:14;5.95;;;1.92;;
27491;SDS011;14927;51.210;6.838;2022-09-14T06:14:58;5.50;;;1.98;;
27491;SDS011;14927;51.210;6.838;2022-09-14T06:17:43;8.40;;;2.20;;
27491;SDS011;14927;51.210;6.838;2022-09-14T06:20:28;6.35;;;1.83;;
27491;SDS011;14927;51.210;6.838;2022-09-14T06:23:12;8.15;;;2.08;;
27491;SDS011;14927;51.210;6.838;2022-09-14T06:26:03;8.95;;;3.42;;
27491;SDS011;14927;51.210;6.838;2022-09-14T06:28:49;4.55;;;1.70;;
27491;SDS011;14927;51.210;6.838;2022-09-14T06:31:34;5.28;;;1.70;;
27491;SDS011;14927;51.210;6.838;2022-09-14T06:34:19;5.60;;;1.50;;
27491;SDS011;14927;51.210;6.838;2022-09-14T06:37:04;7.80;;;1.55;;
27491;SDS011;14927;51.210;6.838;2022-09-14T06:39:48;5.65;;;1.08;;
27491;SDS011;14927;51.210;6.838;2022-09-14T06:42:33;3.90;;;1.20;;
27491;SDS011;14927;51.210;6.838;2022-09-14T06:45:18;8.38;;;1.63;;
27491;SDS011;14927;51.210;6.838;2022-09-14T06:48:06;5.32;;;1.33;;
27491;SDS011;14927;51.210;6.838;2022-09-14T06:50:56;6.57;;;2.17;;
27491;SDS011;14927;51.210;6.838;2022-09-14T06:53:41;3.50;;;1.10;;
27491;SDS011;14927;51.210;6.838;2022-09-14T06:56:26;6.30;;;2.08;;
27491;SDS011;14927;51.210;6.838;2022-09-14T06:59:15;6.78;;;1.88;;
27491;SDS011;14927;51.210;6.838;2022-09-14T07:02:01;3.78;;;1.80;;
27491;SDS011;14927;51.210;6.838;2022-09-14T07:04:45;7.90;;;1.83;;
27491;SDS011;14927;51.210;6.838;2022-09-14T07:07:30;5.43;;;1.40;;
27491;SDS011;14927;51.210;6.838;2022-09-14T07:10:15;4.28;;;1.23;;
27491;SDS011;14927;51.210;6.838;2022-09-14T07:12:59;6.32;;;1.23;;
27491;SDS011;14927;51.210;6.838;2022-09-14T07:15:47;4.55;;;1.17;;
27491;SDS011;14927;51.210;6.838;2022-09-14T07:18:33;5.53;;;1.35;;
27491;SDS011;14927;51.210;6.838;2022-09-14T07:21:18;5.35;;;1.75;;
27491;SDS011;14927;51.210;6.838;2022-09-14T07:28:09;4.28;;;1.48;;
27491;SDS011;14927;51.210;6.838;2022-09-14T07:30:53;5.63;;;1.20;;
27491;SDS011;14927;51.210;6.838;2022-09-14T07:33:44;5.20;;;1.30;;
27491;SDS011;14927;51.210;6.838;2022-09-14T07:36:30;5.80;;;1.50;;
27491;SDS011;14927;51.210;6.838;2022-09-14T07:39:17;6.07;;;1.80;;
27491;SDS011;14927;51.210;6.838;2022-09-14T07:45:05;6.38;;;1.35;;
27491;SDS011;14927;51.210;6.838;2022-09-14T07:47:50;5.50;;;1.70;;
27491;SDS011;14927;51.210;6.838;2022-09-14T07:50:37;3.47;;;1.58;;
27491;SDS011;14927;51.210;6.838;2022-09-14T07:53:27;4.95;;;1.45;;
27491;SDS011;14927;51.210;6.838;2022-09-14T07:56:22;7.47;;;2.28;;
27491;SDS011;14927;51.210;6.838;2022-09-14T07:59:11;8.35;;;1.73;;
27491;SDS011;14927;51.210;6.838;2022-09-14T08:01:57;6.05;;;2.03;;
27491;SDS011;14927;51.210;6.838;2022-09-14T08:04:42;7.28;;;2.15;;
27491;SDS011;14927;51.210;6.838;2022-09-14T08:07:27;5.15;;;1.67;;
27491;SDS011;14927;51.210;6.838;2022-09-14T08:10:12;7.70;;;2.13;;
27491;SDS011;14927;51.210;6.838;2022-09-14T08:12:58;2.58;;;1.20;;
27491;SDS011;14927;51.210;6.838;2022-09-14T08:15:43;3.97;;;1.55;;
27491;SDS011;14927;51.210;6.838;2022-09-14T08:18:28;6.15;;;1.70;;
27491;SDS011;14927;51.210;6.838;2022-09-14T08:21:17;13.68;;;1.83;;
27491;SDS011;14927;51.210;6.838;2022-09-14T08:24:22;3.80;;;1.63;;
27491;SDS011;14927;51.210;6.838;2022-09-14T08:27:09;5.20;;;1.67;;
27491;SDS011;14927;51.210;6.838;2022-09-14T08:29:54;3.90;;;1.65;;
27491;SDS011;14927;51.210;6.838;2022-09-14T08:32:39;3.03;;;1.30;;
27491;SDS011;14927;51.210;6.838;2022-09-14T08:35:55;3.50;;;1.20;;
27491;SDS011;14927;51.210;6.838;2022-09-14T08:38:46;3.75;;;1.35;;
27491;SDS011;14927;51.210;6.838;2022-09-14T08:41:55;2.97;;;1.25;;
27491;SDS011;14927;51.210;6.838;2022-09-14T08:44:43;3.30;;;1.48;;
27491;SDS011;14927;51.210;6.838;2022-09-14T08:50:27;2.30;;;1.50;;
27491;SDS011;14927;51.210;6.838;2022-09-14T08:53:12;1.67;;;0.90;;
27491;SDS011;14927;51.210;6.838;2022-09-14T09:05:53;2.30;;;1.00;;
27491;SDS011;14927;51.210;6.838;2022-09-14T09:09:12;1.83;;;0.75;;
27491;SDS011;14927;51.210;6.838;2022-09-14T09:12:11;1.33;;;0.70;;
27491;SDS011;14927;51.210;6.838;2022-09-14T09:15:33;2.55;;;0.80;;
27491;SDS011;14927;51.210;6.838;2022-09-14T09:21:34;2.47;;;0.77;;
27491;SDS011;14927;51.210;6.838;2022-09-14T09:24:31;2.10;;;1.10;;
27491;SDS011;14927;51.210;6.838;2022-09-14T09:27:23;2.38;;;1.00;;
27491;SDS011;14927;51.210;6.838;2022-09-14T09:30:13;2.78;;;1.05;;
27491;SDS011;14927;51.210;6.838;2022-09-14T09:32:59;4.57;;;1.30;;
27491;SDS011;14927;51.210;6.838;2022-09-14T09:35:44;4.30;;;1.20;;
27491;SDS011;14927;51.210;6.838;2022-09-14T09:38:28;2.70;;;1.00;;
27491;SDS011;14927;51.210;6.838;2022-09-14T09:44:05;1.98;;;1.15;;
27491;SDS011;14927;51.210;6.838;2022-09-14T09:46:55;2.00;;;1.70;;
27491;SDS011;14927;51.210;6.838;2022-09-14T09:49:43;1.70;;;1.20;;
27491;SDS011;14927;51.210;6.838;2022-09-14T09:52:28;1.52;;;1.15;;
27491;SDS011;14927;51.210;6.838;2022-09-14T09:55:17;2.22;;;1.35;;
27491;SDS011;14927;51.210;6.838;2022-09-14T09:58:20;2.55;;;1.35;;
27491;SDS011;14927;51.210;6.838;2022-09-14T10:01:28;3.65;;;1.90;;
27491;SDS011;14927;51.210;6.838;2022-09-14T10:04:19;6.20;;;2.57;;
27491;SDS011;14927;51.210;6.838;2022-09-14T10:07:20;6.25;;;2.28;;
27491;SDS011;14927;51.210;6.838;2022-09-14T10:10:06;3.47;;;2.30;;
27491;SDS011;14927;51.210;6.838;2022-09-14T10:12:57;2.80;;;1.98;;
27491;SDS011;14927;51.210;6.838;2022-09-14T10:15:42;5.25;;;2.10;;
27491;SDS011;14927;51.210;6.838;2022-09-14T10:18:26;2.10;;;1.90;;
27491;SDS011;14927;51.210;6.838;2022-09-14T10:21:17;2.17;;;1.98;;
27491;SDS011;14927;51.210;6.838;2022-09-14T10:24:22;3.13;;;2.03;;
27491;SDS011;14927;51.210;6.838;2022-09-14T10:30:41;3.42;;;2.30;;
27491;SDS011;14927;51.210;6.838;2022-09-14T10:33:32;2.45;;;2.25;;
27491;SDS011;14927;51.210;6.838;2022-09-14T10:39:21;3.50;;;2.50;;
27491;SDS011;14927;51.210;6.838;2022-09-14T10:45:37;3.65;;;3.00;;
27491;SDS011;14927;51.210;6.838;2022-09-14T10:48:46;3.58;;;2.55;;
27491;SDS011;14927;51.210;6.838;2022-09-14T10:52:04;5.32;;;2.50;;
27491;SDS011;14927;51.210;6.838;2022-09-14T11:04:41;3.92;;;2.70;;
27491;SDS011;14927;51.210;6.838;2022-09-14T11:11:25;5.78;;;2.60;;
27491;SDS011;14927;51.210;6.838;2022-09-14T11:17:55;3.17;;;1.88;;
27491;SDS011;14927;51.210;6.838;2022-09-14T11:23:55;1.63;;;1.52;;
27491;SDS011;14927;51.210;6.838;2022-09-14T11:26:56;2.90;;;1.92;;
27491;SDS011;14927;51.210;6.838;2022-09-14T11:30:18;1.85;;;1.75;;
27491;SDS011;14927;51.210;6.838;2022-09-14T11:33:11;3.67;;;1.60;;
27491;SDS011;14927;51.210;6.838;2022-09-14T11:36:04;2.38;;;1.40;;
27491;SDS011;14927;51.210;6.838;2022-09-14T11:39:10;2.70;;;1.45;;
27491;SDS011;14927;51.210;6.838;2022-09-14T11:42:09;3.40;;;1.90;;
27491;SDS011;14927;51.210;6.838;2022-09-14T11:45:20;1.55;;;1.17;;
27491;SDS011;14927;51.210;6.838;2022-09-14T11:48:20;3.47;;;1.20;;
27491;SDS011;14927;51.210;6.838;2022-09-14T11:51:20;3.05;;;1.20;;
27491;SDS011;14927;51.210;6.838;2022-09-14T11:54:22;4.97;;;1.63;;
27491;SDS011;14927;51.210;6.838;2022-09-14T11:57:11;1.30;;;1.00;;
27491;SDS011;14927;51.210;6.838;2022-09-14T12:00:03;3.75;;;0.85;;
27491;SDS011;14927;51.210;6.838;2022-09-14T12:05:59;2.67;;;0.95;;
27491;SDS011;14927;51.210;6.838;2022-09-14T12:12:01;1.52;;;0.98;;
27491;SDS011;14927;51.210;6.838;2022-09-14T12:14:49;2.15;;;1.02;;
27491;SDS011;14927;51.210;6.838;2022-09-14T12:17:43;1.60;;;0.70;;
27491;SDS011;14927;51.210;6.838;2022-09-14T12:23:52;1.85;;;0.98;;
27491;SDS011;14927;51.210;6.838;2022-09-14T12:26:40;2.05;;;0.90;;
27491;SDS011;14927;51.210;6.838;2022-09-14T12:29:26;3.03;;;1.30;;
27491;SDS011;14927;51.210;6.838;2022-09-14T12:44:03;1.05;;;0.60;;
27491;SDS011;14927;51.210;6.838;2022-09-14T12:50:09;1.13;;;0.70;;
27491;SDS011;14927;51.210;6.838;2022-09-14T12:53:05;1.25;;;0.85;;
27491;SDS011;14927;51.210;6.838;2022-09-14T12:56:11;0.82;;;0.70;;
27491;SDS011;14927;51.210;6.838;2022-09-14T13:05:44;1.85;;;0.80;;
27491;SDS011;14927;51.210;6.838;2022-09-14T13:08:29;1.70;;;1.00;;
27491;SDS011;14927;51.210;6.838;2022-09-14T13:11:20;1.48;;;1.00;;
27491;SDS011;14927;51.210;6.838;2022-09-14T13:14:18;3.13;;;1.10;;
27491;SDS011;14927;51.210;6.838;2022-09-14T13:17:09;1.35;;;0.98;;
27491;SDS011;14927;51.210;6.838;2022-09-14T13:20:01;1.40;;;1.00;;
27491;SDS011;14927;51.210;6.838;2022-09-14T13:22:58;2.10;;;1.10;;
27491;SDS011;14927;51.210;6.838;2022-09-14T13:25:44;2.08;;;1.05;;
27491;SDS011;14927;51.210;6.838;2022-09-14T13:28:29;2.25;;;1.30;;
27491;SDS011;14927;51.210;6.838;2022-09-14T13:31:19;2.20;;;0.73;;
27491;SDS011;14927;51.210;6.838;2022-09-14T13:34:28;1.75;;;0.80;;
27491;SDS011;14927;51.210;6.838;2022-09-14T13:37:18;4.63;;;1.10;;
27491;SDS011;14927;51.210;6.838;2022-09-14T13:40:05;2.90;;;1.10;;
27491;SDS011;14927;51.210;6.838;2022-09-14T13:42:50;3.28;;;1.17;;
27491;SDS011;14927;51.210;6.838;2022-09-14T13:45:35;1.60;;;1.17;;
27491;SDS011;14927;51.210;6.838;2022-09-14T13:48:19;2.67;;;1.70;;
27491;SDS011;14927;51.210;6.838;2022-09-14T13:51:05;2.58;;;1.08;;
27491;SDS011;14927;51.210;6.838;2022-09-14T13:53:54;1.65;;;0.90;;
27491;SDS011;14927;51.210;6.838;2022-09-14T13:56:41;2.25;;;1.13;;
27491;SDS011;14927;51.210;6.838;2022-09-14T13:59:26;3.15;;;1.50;;
27491;SDS011;14927;51.210;6.838;2022-09-14T14:02:11;2.80;;;1.23;;
27491;SDS011;14927;51.210;6.838;2022-09-14T14:04:57;3.15;;;1.40;;
27491;SDS011;14927;51.210;6.838;2022-09-14T14:07:42;2.80;;;1.50;;
27491;SDS011;14927;51.210;6.838;2022-09-14T14:10:30;3.03;;;1.25;;
27491;SDS011;14927;51.210;6.838;2022-09-14T14:13:30;3.42;;;1.42;;
27491;SDS011;14927;51.210;6.838;2022-09-14T14:16:31;2.08;;;1.30;;
27491;SDS011;14927;51.210;6.838;2022-09-14T14:19:27;4.00;;;1.30;;
27491;SDS011;14927;51.210;6.838;2022-09-14T14:24:57;2.75;;;1.55;;
27491;SDS011;14927;51.210;6.838;2022-09-14T14:27:45;3.28;;;1.77;;
27491;SDS011;14927;51.210;6.838;2022-09-14T14:30:36;2.63;;;1.23;;
27491;SDS011;14927;51.210;6.838;2022-09-14T14:33:24;3.85;;;1.38;;
27491;SDS011;14927;51.210;6.838;2022-09-14T14:36:09;2.17;;;1.75;;
27491;SDS011;14927;51.210;6.838;2022-09-14T14:38:53;2.25;;;1.17;;
27491;SDS011;14927;51.210;6.838;2022-09-14T14:41:39;23.33;;;14.75;;
27491;SDS011;14927;51.210;6.838;2022-09-14T14:44:25;3.67;;;2.08;;
27491;SDS011;14927;51.210;6.838;2022-09-14T14:47:12;1.75;;;1.45;;
27491;SDS011;14927;51.210;6.838;2022-09-14T14:50:11;4.63;;;1.38;;
27491;SDS011;14927;51.210;6.838;2022-09-14T14:53:29;2.33;;;1.40;;
27491;SDS011;14927;51.210;6.838;2022-09-14T14:56:14;4.30;;;2.10;;
27491;SDS011;14927;51.210;6.838;2022-09-14T14:58:59;5.38;;;1.52;;
27491;SDS011;14927;51.210;6.838;2022-09-14T15:01:44;7.60;;;2.00;;
27491;SDS011;14927;51.210;6.838;2022-09-14T15:04:32;3.00;;;1.30;;
27491;SDS011;14927;51.210;6.838;2022-09-14T15:07:17;4.72;;;1.50;;
27491;SDS011;14927;51.210;6.838;2022-09-14T15:10:02;2.05;;;1.48;;
27491;SDS011;14927;51.210;6.838;2022-09-14T15:12:52;3.15;;;1.60;;
27491;SDS011;14927;51.210;6.838;2022-09-14T15:15:38;4.45;;;1.30;;
27491;SDS011;14927;51.210;6.838;2022-09-14T15:18:27;2.90;;;1.92;;
27491;SDS011;14927;51.210;6.838;2022-09-14T15:21:11;4.75;;;1.50;;
27491;SDS011;14927;51.210;6.838;2022-09-14T15:23:59;2.60;;;1.70;;
27491;SDS011;14927;51.210;6.838;2022-09-14T15:26:44;4.30;;;1.38;;
27491;SDS011;14927;51.210;6.838;2022-09-14T15:29:29;1.63;;;0.90;;
27491;SDS011;14927;51.210;6.838;2022-09-14T15:32:13;2.10;;;1.15;;
27491;SDS011;14927;51.210;6.838;2022-09-14T15:34:58;2.30;;;0.90;;
27491;SDS011;14927;51.210;6.838;2022-09-14T15:37:42;4.28;;;1.20;;
27491;SDS011;14927;51.210;6.838;2022-09-14T15:40:30;3.35;;;1.67;;
27491;SDS011;14927;51.210;6.838;2022-09-14T15:43:15;2.60;;;1.10;;
27491;SDS011;14927;51.210;6.838;2022-09-14T15:46:01;1.77;;;1.05;;
27491;SDS011;14927;51.210;6.838;2022-09-14T15:48:46;3.40;;;1.40;;
27491;SDS011;14927;51.210;6.838;2022-09-14T15:51:32;1.20;;;0.90;;
27491;SDS011;14927;51.210;6.838;2022-09-14T15:54:19;2.08;;;1.30;;
27491;SDS011;14927;51.210;6.838;2022-09-14T15:57:07;3.03;;;1.50;;
27491;SDS011;14927;51.210;6.838;2022-09-14T15:59:55;3.03;;;1.45;;
27491;SDS011;14927;51.210;6.838;2022-09-14T16:02:44;2.75;;;1.10;;
27491;SDS011;14927;51.210;6.838;2022-09-14T16:05:36;2.47;;;1.33;;
27491;SDS011;14927;51.210;6.838;2022-09-14T16:08:22;1.93;;;1.20;;
27491;SDS011;14927;51.210;6.838;2022-09-14T16:11:08;4.88;;;1.50;;
27491;SDS011;14927;51.210;6.838;2022-09-14T16:13:54;4.28;;;1.30;;
27491;SDS011;14927;51.210;6.838;2022-09-14T16:16:39;3.22;;;1.40;;
27491;SDS011;14927;51.210;6.838;2022-09-14T16:19:25;2.72;;;1.20;;
27491;SDS011;14927;51.210;6.838;2022-09-14T16:22:11;4.45;;;1.00;;
27491;SDS011;14927;51.210;6.838;2022-09-14T16:24:56;3.25;;;1.42;;
27491;SDS011;14927;51.210;6.838;2022-09-14T16:27:41;2.13;;;1.20;;
27491;SDS011;14927;51.210;6.838;2022-09-14T16:30:27;4.72;;;1.25;;
27491;SDS011;14927;51.210;6.838;2022-09-14T16:33:11;1.23;;;0.90;;
27491;SDS011;14927;51.210;6.838;2022-09-14T16:36:03;2.28;;;1.20;;
27491;SDS011;14927;51.210;6.838;2022-09-14T16:39:00;1.60;;;0.70;;
27491;SDS011;14927;51.210;6.838;2022-09-14T16:41:52;2.33;;;0.90;;
27491;SDS011;14927;51.210;6.838;2022-09-14T16:44:39;2.10;;;0.90;;
27491;SDS011;14927;51.210;6.838;2022-09-14T16:47:25;2.65;;;0.90;;
27491;SDS011;14927;51.210;6.838;2022-09-14T16:50:10;2.58;;;0.80;;
27491;SDS011;14927;51.210;6.838;2022-09-14T16:52:55;3.08;;;1.15;;
27491;SDS011;14927;51.210;6.838;2022-09-14T16:55:40;3.22;;;0.93;;
27491;SDS011;14927;51.210;6.838;2022-09-14T16:58:25;4.80;;;1.00;;
27491;SDS011;14927;51.210;6.838;2022-09-14T17:01:11;2.65;;;1.50;;
27491;SDS011;14927;51.210;6.838;2022-09-14T17:04:13;1.73;;;1.10;;
27491;SDS011;14927;51.210;6.838;2022-09-14T17:07:00;1.60;;;1.10;;
27491;SDS011;14927;51.210;6.838;2022-09-14T17:09:44;2.75;;;1.00;;
27491;SDS011;14927;51.210;6.838;2022-09-14T17:12:30;2.65;;;1.50;;
27491;SDS011;14927;51.210;6.838;2022-09-14T17:15:15;3.15;;;1.50;;
27491;SDS011;14927;51.210;6.838;2022-09-14T17:18:00;3.53;;;1.23;;
27491;SDS011;14927;51.210;6.838;2022-09-14T17:21:01;4.50;;;1.52;;
27491;SDS011;14927;51.210;6.838;2022-09-14T17:23:54;4.38;;;1.20;;
27491;SDS011;14927;51.210;6.838;2022-09-14T17:26:42;5.93;;;1.83;;
27491;SDS011;14927;51.210;6.838;2022-09-14T17:29:26;2.67;;;1.60;;
27491;SDS011;14927;51.210;6.838;2022-09-14T17:32:12;7.68;;;2.25;;
27491;SDS011;14927;51.210;6.838;2022-09-14T17:34:59;3.08;;;1.85;;
27491;SDS011;14927;51.210;6.838;2022-09-14T17:37:44;3.90;;;2.15;;
27491;SDS011;14927;51.210;6.838;2022-09-14T17:40:30;5.28;;;2.47;;
27491;SDS011;14927;51.210;6.838;2022-09-14T17:43:15;5.47;;;2.65;;
27491;SDS011;14927;51.210;6.838;2022-09-14T17:46:02;3.78;;;2.65;;
27491;SDS011;14927;51.210;6.838;2022-09-14T17:48:48;4.30;;;2.90;;
27491;SDS011;14927;51.210;6.838;2022-09-14T17:51:34;7.03;;;3.53;;
27491;SDS011;14927;51.210;6.838;2022-09-14T17:54:20;5.72;;;3.22;;
27491;SDS011;14927;51.210;6.838;2022-09-14T17:57:07;6.38;;;3.63;;
27491;SDS011;14927;51.210;6.838;2022-09-14T17:59:53;6.13;;;4.03;;
27491;SDS011;14927;51.210;6.838;2022-09-14T18:02:38;6.10;;;4.53;;
27491;SDS011;14927;51.210;6.838;2022-09-14T18:05:23;6.97;;;4.60;;
27491;SDS011;14927;51.210;6.838;2022-09-14T18:08:08;9.05;;;5.30;;
27491;SDS011;14927;51.210;6.838;2022-09-14T18:10:54;7.53;;;5.35;;
27491;SDS011;14927;51.210;6.838;2022-09-14T18:13:40;10.18;;;5.80;;
27491;SDS011;14927;51.210;6.838;2022-09-14T18:16:29;9.23;;;5.95;;
27491;SDS011;14927;51.210;6.838;2022-09-14T18:19:15;13.95;;;5.93;;
27491;SDS011;14927;51.210;6.838;2022-09-14T18:22:00;9.27;;;5.97;;
27491;SDS011;14927;51.210;6.838;2022-09-14T18:24:46;9.35;;;6.60;;
27491;SDS011;14927;51.210;6.838;2022-09-14T18:27:32;11.73;;;6.88;;
27491;SDS011;14927;51.210;6.838;2022-09-14T18:30:17;10.20;;;7.38;;
27491;SDS011;14927;51.210;6.838;2022-09-14T18:33:02;18.10;;;7.72;;
27491;SDS011;14927;51.210;6.838;2022-09-14T18:35:53;11.23;;;8.52;;
27491;SDS011;14927;51.210;6.838;2022-09-14T18:38:39;11.23;;;8.68;;
27491;SDS011;14927;51.210;6.838;2022-09-14T18:41:25;13.02;;;8.77;;
27491;SDS011;14927;51.210;6.838;2022-09-14T18:44:14;13.65;;;8.75;;
27491;SDS011;14927;51.210;6.838;2022-09-14T18:47:02;12.27;;;9.55;;
27491;SDS011;14927;51.210;6.838;2022-09-14T18:49:48;14.15;;;10.05;;
27491;SDS011;14927;51.210;6.838;2022-09-14T18:52:48;13.75;;;10.02;;
27491;SDS011;14927;51.210;6.838;2022-09-14T18:55:34;13.43;;;10.23;;